Airfield :
LOGIN :

Register | Disclaimer

   EN    FR    IT 

 










Legend :    VFR   Marginal VFR   IFR   Intensive IFR   Very Intensive IFR
Visi :
Ceiling :
>= 8 km
>= 3000ft
5 to 8 km
1000 to 3000 ft
1500m to 5 km
500 to 1000 ft
800 to 1500m
200 to 500 ft
< 800m
< 200 ft
Symbols :   Thunderstorms  Fog  Heavy snow  Heavy precipitations  Wind > 20 kt
SIGMETs :     Misc.  Thunderstorms  Icing  Turbulence  Mountain Waves  Volcanic Ashes






- Airport Elevation : 42 ft
- IATA code : KGD


UMKK - Khrabrava - Kaliningrad

CURRENT METAR :
  • 250530Z 24002MPS 210V270 9999 SCT024 11/10 Q1020 R24/CLRD95 NOSIG RMK QFE764/1019

EXPIRED METARs :
  • 250500Z 26002MPS 9999 SCT017 11/10 Q1020 R24/CLRD95 NOSIG RMK QFE764/1019
  • 250430Z 24002MPS 9999 SCT017 11/10 Q1020 R24/CLRD95 NOSIG RMK QFE764/1019
  • 250400Z 23002MPS 9999 SCT016 10/09 Q1020 R24/CLRD95 NOSIG RMK QFE764/1018
  • 250330Z 22003MPS 9999 FEW020 10/09 Q1019 R24/95D NOSIG RMK QFE763/1018
  • 250300Z 21002MPS 9999 FEW020 09/08 Q1019 R24/CLRD95 NOSIG RMK QFE763/1018

TAF TAF UMKK
Valid from the 25 at 06:00 until the 26 at 06:00 UTC


250443Z 2506/2606 33005G11MPS 8000 SCT011 SCT020CB
TEMPO 2506/2516 VRB11MPS 1100 TSRAGS BR BKN003 BKN016CB
TEMPO 2516/2519 02007MPS
TEMPO 2519/2606 0300 FG BKN002
BECMG 2522/2524 01003G08MPS



MET'MAP, your aeronautical weather chart ! - Copyright ORBIFLY December 2007 - Disclaimer

ORBIFLY MET'MAP TEAM :

Programming & Development : Alexandra Zaïnal
Concept & original design : Baudouin d'Aumeries
Assistance for programming : Marc-Olivier Méhu
Technical & hardware support : Manuel Goepfert

Contact : metmap@orbifly.com




SOURCES & CREDITS :

   NOAA